Nearby METAR Reports

 

KCRE - North Myrtle Beach, South Carolina, USA
Distance from station: WSW 14mi, 23km
Updated: 09/26/2017 3:53pm
Clear
Clear
 Wind from N
Wind: N 12 mph , 19 km/h, Gust: 18 mph , 30 km/h
Temperature: 88°F , 31°C
Heat Index: 95°F , 35°C
Dew Point: 72°F , 22°C
Humidity: 59%
Barometer: 29.78 inHg , 1008.5 hPa
Clouds: Clear
Visibility: 10 miles , 16 km
2017/09/26 19:53 KCRE 261953Z 01010G16KT 10SM CLR 31/22 A2978 RMK AO1 SLP086 T03060217
KSUT - Southport, North Carolina, USA
Distance from station: E 24mi, 38km
Updated: 09/26/2017 3:50pm
Partly cloudy
Partly cloudy
 Wind from N
Wind: N 16 mph , 26 km/h, Gust: 25 mph , 41 km/h
Temperature: 86°F , 30°C
Heat Index: 91°F , 33°C
Dew Point: 70°F , 21°C
Humidity: 59%
Barometer: 29.77 inHg , 1008.1 hPa
Clouds: Partly cloudy
Visibility: 10 miles , 16 km
Cloud details: Partly cloudy 3800 ft
Partly cloudy 4700 ft
2017/09/26 19:50 KSUT 261950Z AUTO 36014G22KT 10SM SCT038 SCT047 30/21 A2977 RMK AO2 T02970212
KCPC - Whiteville, North Carolina, USA
Distance from station: NNW 28mi, 46km
Updated: 09/26/2017 3:40pm
Clear
Clear
 Wind from N
Wind: N 7 mph , 11 km/h
Temperature: 86°F , 30°C
Heat Index: 91°F , 33°C
Dew Point: 70°F , 21°C
Humidity: 59%
Barometer: 29.80 inHg , 1009.1 hPa
Clouds: Clear
Visibility: 10 miles , 16 km
2017/09/26 19:40 KCPC 261940Z AUTO 36006KT 10SM CLR 30/21 A2980 RMK AO2 T02980211
 
KILM - Wilmington, North Carolina, USA
Distance from station: NE 42mi, 67km
Updated: 09/26/2017 3:53pm
Mostly cloudy
Mostly cloudy
 Wind from NNW
Wind: NNW 16 mph , 26 km/h, Gust: 28 mph , 44 km/h
Temperature: 84°F , 29°C
Heat Index: 88°F , 31°C
Dew Point: 70°F , 21°C
Humidity: 62%
Barometer: 29.76 inHg , 1007.8 hPa
Clouds: Mostly cloudy
Visibility: 10 miles , 16 km
Cloud details: Few Clouds 3500 ft
Mostly cloudy 4700 ft
2017/09/26 19:53 KILM 261953Z AUTO 34014G24KT 10SM FEW035 BKN047 29/21 A2976 RMK AO2 PK WND 34027/1856 SLP079 T02890211
KLBT - Lumberton, North Carolina, USA
Distance from station: NW 57mi, 92km
Updated: 09/26/2017 3:54pm
Few Clouds
Few Clouds
 Wind from N
Wind: N 12 mph , 19 km/h
Temperature: 88°F , 31°C
Heat Index: 93°F , 34°C
Dew Point: 70°F , 21°C
Humidity: 55%
Barometer: 29.82 inHg , 1009.8 hPa
Clouds: Few Clouds
Visibility: 10 miles , 16 km
Cloud details: Few Clouds 4000 ft
2017/09/26 19:54 KLBT 261954Z AUTO 35010KT 10SM FEW040 31/21 A2982 RMK AO2 SLPNO T03060211 TSNO
KGGE - Georgetown, South Carolina, USA
Distance from station: SW 63mi, 101km
Updated: 09/26/2017 3:55pm
Partly cloudy
Partly cloudy
 Wind from NNW
Wind: NNW 13 mph , 20 km/h, Gust: 17 mph , 28 km/h
Temperature: 82°F , 28°C
Heat Index: 87°F , 31°C
Dew Point: 73°F , 23°C
Humidity: 74%
Barometer: 29.83 inHg , 1010.2 hPa
Clouds: Partly cloudy
Visibility: 10 miles , 16 km
Cloud details: Partly cloudy 2500 ft
2017/09/26 19:55 KGGE 261955Z AUTO 34011G15KT 10SM SCT025 28/23 A2983 RMK AO2
 
KFLO - Florence, South Carolina, USA
Distance from station: WNW 73mi, 118km
Updated: 09/26/2017 3:53pm
Mostly cloudy
Mostly cloudy
 Wind from NNE
Wind: NNE 13 mph , 20 km/h, Gust: 21 mph , 33 km/h
Temperature: 88°F , 31°C
Heat Index: 93°F , 34°C
Dew Point: 70°F , 21°C
Humidity: 55%
Barometer: 29.83 inHg , 1010.2 hPa
Clouds: Mostly cloudy
Visibility: 10 miles , 16 km
Cloud details: Mostly cloudy 3900 ft
Mostly cloudy 5000 ft
2017/09/26 19:53 KFLO 261953Z AUTO 03011G18KT 10SM BKN039 BKN050 31/21 A2983 RMK AO2 SLP099 T03110211
KCTZ - Clinton, North Carolina, USA
Distance from station: N 74mi, 119km
Updated: 09/26/2017 3:45pm
Partly cloudy
Partly cloudy
 Wind from N
Wind: N 10 mph , 17 km/h, Gust: 16 mph , 26 km/h
Temperature: 84°F , 29°C
Heat Index: 89°F , 32°C
Dew Point: 72°F , 22°C
Humidity: 66%
Barometer: 29.82 inHg , 1009.8 hPa
Clouds: Partly cloudy
Visibility: 10 miles , 16 km
Cloud details: Partly cloudy 4100 ft
2017/09/26 19:45 KCTZ 261945Z AUTO 36009G14KT 340V060 10SM SCT041 29/22 A2982 RMK AO2 T02890224
KFAY - Fayetteville, North Carolina, USA
Distance from station: NNW 77mi, 124km
Updated: 09/26/2017 3:53pm
Few Clouds
Few Clouds
 Wind from N
Wind: N 16 mph , 26 km/h, Gust: 22 mph , 35 km/h
Temperature: 86°F , 30°C
Heat Index: 91°F , 33°C
Dew Point: 70°F , 21°C
Humidity: 59%
Barometer: 29.82 inHg , 1009.8 hPa
Clouds: Few Clouds
Visibility: 10 miles , 16 km
Cloud details: Few Clouds 3500 ft
2017/09/26 19:53 KFAY 261953Z 35014G19KT 10SM FEW035 30/21 A2982 RMK AO2 SLP093 T03000211
 
KOAJ - Jacksonville, North Carolina, USA
Distance from station: NE 80mi, 129km
Updated: 09/26/2017 3:56pm
Overcast
Overcast
 Wind from N
Wind: N 9 mph , 15 km/h
Temperature: 82°F , 28°C
Heat Index: 87°F , 31°C
Dew Point: 73°F , 23°C
Humidity: 74%
Barometer: 29.77 inHg , 1008.1 hPa
Clouds: Overcast
Visibility: 10 miles , 16 km
Cloud details: Partly cloudy 2900 ft
Mostly cloudy 4300 ft
Overcast 5500 ft
2017/09/26 19:56 KOAJ 261956Z AUTO 35008KT 10SM SCT029 BKN043 OVC055 28/23 A2977 RMK AO2 SLP085 T02780228